createdAt,value
2022-12-14T00:01:49.819Z,21.37
2022-12-14T00:04:19.104Z,20.33
2022-12-14T00:06:47.226Z,21.00
2022-12-14T00:09:15.114Z,20.60
2022-12-14T00:11:43.184Z,20.73
2022-12-14T00:14:11.148Z,23.67
2022-12-14T00:16:39.036Z,20.03
2022-12-14T00:19:07.012Z,20.80
2022-12-14T00:21:36.300Z,19.43
2022-12-14T00:24:04.464Z,20.47
2022-12-14T00:26:33.641Z,23.20
2022-12-14T00:29:02.853Z,22.00
2022-12-14T00:31:31.616Z,20.33
2022-12-14T00:34:01.552Z,20.70
2022-12-14T00:36:31.895Z,20.90
2022-12-14T00:39:01.533Z,19.40
2022-12-14T00:41:29.428Z,20.77
2022-12-14T00:43:57.414Z,21.83
2022-12-14T00:46:25.425Z,20.13
2022-12-14T00:48:53.542Z,20.40
2022-12-14T00:51:21.453Z,23.00
2022-12-14T00:53:49.393Z,21.20
2022-12-14T00:56:18.801Z,20.07
2022-12-14T00:58:51.866Z,20.03
2022-12-14T01:01:20.334Z,21.40
2022-12-14T01:03:48.767Z,19.07
2022-12-14T01:06:17.909Z,19.70
2022-12-14T01:08:45.946Z,19.00
2022-12-14T01:11:14.489Z,18.90
2022-12-14T01:13:43.973Z,17.40
2022-12-14T01:16:14.033Z,19.23
2022-12-14T01:18:43.740Z,16.53
2022-12-14T01:21:14.179Z,19.03
2022-12-14T01:23:42.491Z,17.70
2022-12-14T01:26:10.549Z,18.33
2022-12-14T01:28:38.468Z,21.30
2022-12-14T01:31:10.461Z,18.60
2022-12-14T01:33:38.560Z,18.07
2022-12-14T01:36:08.210Z,20.03
2022-12-14T01:38:36.583Z,19.53
2022-12-14T01:41:05.938Z,18.80
2022-12-14T01:43:51.347Z,18.40
2022-12-14T01:46:26.783Z,18.17
2022-12-14T01:49:00.374Z,18.17
2022-12-14T01:51:30.747Z,18.40
2022-12-14T01:54:02.717Z,17.87
2022-12-14T01:56:31.952Z,18.93
2022-12-14T01:59:05.470Z,18.30
2022-12-14T02:01:35.076Z,18.93
2022-12-14T02:04:04.976Z,15.50
2022-12-14T02:06:36.307Z,16.03
2022-12-14T02:09:07.467Z,17.77
2022-12-14T02:11:44.173Z,15.90
2022-12-14T02:14:12.122Z,14.57
2022-12-14T02:16:42.136Z,14.60
2022-12-14T02:19:10.164Z,16.40
2022-12-14T02:22:02.567Z,15.30
2022-12-14T02:25:07.901Z,17.73
2022-12-14T02:28:14.565Z,17.00
2022-12-14T02:30:49.825Z,14.93
2022-12-14T02:33:33.298Z,17.07
2022-12-14T02:36:04.671Z,16.10
2022-12-14T02:38:47.369Z,15.37
2022-12-14T02:41:20.073Z,16.00
2022-12-14T02:44:00.158Z,16.80
2022-12-14T02:46:34.476Z,14.87
2022-12-14T02:49:08.091Z,15.17
2022-12-14T02:51:49.712Z,15.27
2022-12-14T02:54:25.278Z,19.50
2022-12-14T02:56:58.270Z,15.90
2022-12-14T02:59:26.821Z,15.00
2022-12-14T03:01:57.128Z,15.57
2022-12-14T03:04:25.687Z,13.53
2022-12-14T03:06:59.751Z,16.13
2022-12-14T03:09:30.229Z,16.27
2022-12-14T03:12:04.063Z,16.23
2022-12-14T03:14:36.690Z,15.50
2022-12-14T03:17:14.121Z,13.90
2022-12-14T03:19:50.363Z,17.30
2022-12-14T03:22:25.002Z,16.37
2022-12-14T03:24:59.742Z,14.53
2022-12-14T03:27:34.549Z,14.73
2022-12-14T03:30:07.733Z,14.90
2022-12-14T03:32:43.409Z,15.07
2022-12-14T03:35:16.630Z,13.90
2022-12-14T03:37:53.130Z,14.83
2022-12-14T03:40:28.047Z,13.53
2022-12-14T03:43:02.969Z,17.33
2022-12-14T03:45:36.686Z,15.67
2022-12-14T03:48:17.538Z,15.53
2022-12-14T03:50:49.647Z,15.33
2022-12-14T03:53:23.127Z,16.80
2022-12-14T03:55:59.631Z,17.43
2022-12-14T03:58:38.005Z,18.07
2022-12-14T04:01:11.550Z,14.00
2022-12-14T04:03:49.942Z,17.37
2022-12-14T04:06:26.926Z,16.57
2022-12-14T04:09:03.975Z,15.53
2022-12-14T04:11:55.131Z,15.70
2022-12-14T04:14:47.242Z,13.17
2022-12-14T04:18:21.182Z,14.77
2022-12-14T04:20:54.139Z,15.30
2022-12-14T04:23:39.654Z,15.87
2022-12-14T04:26:14.222Z,15.63
2022-12-14T04:29:05.605Z,15.53
2022-12-14T04:31:35.712Z,17.60
2022-12-14T04:34:07.100Z,16.57
2022-12-14T04:36:42.784Z,14.87
2022-12-14T04:39:15.943Z,15.40
2022-12-14T04:41:47.856Z,15.03
2022-12-14T04:44:23.359Z,17.20
2022-12-14T04:46:53.756Z,14.17
2022-12-14T04:49:28.170Z,16.07
2022-12-14T04:52:05.703Z,17.30
2022-12-14T04:54:39.144Z,16.97
2022-12-14T04:57:17.375Z,12.93
2022-12-14T04:59:47.356Z,15.93
2022-12-14T05:02:23.420Z,14.43
2022-12-14T05:05:00.131Z,14.47
2022-12-14T05:07:41.164Z,16.90
2022-12-14T05:10:14.006Z,18.60
2022-12-14T05:12:49.202Z,16.80
2022-12-14T05:15:23.399Z,20.20
2022-12-14T05:17:52.021Z,19.90
2022-12-14T05:20:22.304Z,19.70
2022-12-14T05:22:51.840Z,19.50
2022-12-14T05:25:19.758Z,15.73
2022-12-14T05:27:47.648Z,16.80
2022-12-14T05:30:15.935Z,15.97
2022-12-14T05:32:43.852Z,18.37
2022-12-14T05:35:13.842Z,16.10
2022-12-14T05:37:41.867Z,19.10
2022-12-14T05:40:12.490Z,18.20
2022-12-14T05:42:44.700Z,18.77
2022-12-14T05:45:14.698Z,20.40
2022-12-14T05:47:42.591Z,19.77
2022-12-14T05:50:10.767Z,18.47
2022-12-14T05:52:38.678Z,19.23
2022-12-14T05:55:07.660Z,19.53
2022-12-14T05:57:36.951Z,19.80
2022-12-14T06:00:05.464Z,21.27
2022-12-14T06:02:33.362Z,20.40
2022-12-14T06:05:01.429Z,21.53
2022-12-14T06:07:29.428Z,18.07
2022-12-14T06:09:57.389Z,18.93
2022-12-14T06:12:25.265Z,21.17
2022-12-14T06:14:54.547Z,27.50
2022-12-14T06:17:22.546Z,22.50
2022-12-14T06:19:50.649Z,28.80
2022-12-14T06:22:18.908Z,23.20
2022-12-14T06:24:46.979Z,22.73
2022-12-14T06:27:14.854Z,28.50
2022-12-14T06:29:42.766Z,23.70
2022-12-14T06:32:12.025Z,20.43
2022-12-14T06:34:42.221Z,20.50
2022-12-14T06:37:10.496Z,20.20
2022-12-14T06:39:38.902Z,19.83
2022-12-14T06:42:07.404Z,21.47
2022-12-14T06:44:35.332Z,19.57
2022-12-14T06:47:03.223Z,21.00
2022-12-14T06:49:32.725Z,22.50
2022-12-14T06:52:00.604Z,22.67
2022-12-14T06:54:28.573Z,22.57
2022-12-14T06:56:56.467Z,23.63
2022-12-14T06:59:24.346Z,22.80
2022-12-14T07:01:52.309Z,24.70
2022-12-14T07:04:21.569Z,22.60
2022-12-14T07:06:51.153Z,23.20
2022-12-14T07:09:19.560Z,23.60
2022-12-14T07:11:47.446Z,26.77
2022-12-14T07:14:17.903Z,23.10
2022-12-14T07:16:48.683Z,23.63
2022-12-14T07:19:17.112Z,27.00
2022-12-14T07:21:45.004Z,23.43
2022-12-14T07:24:14.331Z,23.03
2022-12-14T07:26:42.303Z,25.70
2022-12-14T07:29:12.003Z,28.87
2022-12-14T07:31:39.991Z,24.23
2022-12-14T07:34:08.016Z,25.83
2022-12-14T07:36:35.900Z,25.30
2022-12-14T07:39:03.822Z,24.13
2022-12-14T07:41:33.493Z,24.80
2022-12-14T07:44:02.144Z,22.67
2022-12-14T07:46:32.230Z,23.10
2022-12-14T07:49:01.062Z,25.13
2022-12-14T07:51:31.104Z,20.23
2022-12-14T07:54:01.995Z,24.80
2022-12-14T07:56:34.360Z,25.43
2022-12-14T07:59:04.939Z,25.07
2022-12-14T08:01:34.641Z,29.67
2022-12-14T08:04:06.663Z,24.37
2022-12-14T08:06:35.618Z,25.97
2022-12-14T08:09:03.887Z,86.00
2022-12-14T08:11:33.480Z,28.70
2022-12-14T08:14:03.172Z,40.80
2022-12-14T08:16:33.474Z,29.33
2022-12-14T08:19:01.998Z,40.07
2022-12-14T08:21:30.545Z,32.10
2022-12-14T08:23:59.481Z,24.20
2022-12-14T08:26:33.513Z,32.97
2022-12-14T08:29:05.618Z,33.47
2022-12-14T08:31:34.263Z,34.10
2022-12-14T08:34:03.195Z,25.53
2022-12-14T08:36:34.228Z,26.20
2022-12-14T08:39:03.809Z,22.97
2022-12-14T08:41:32.008Z,27.77
2022-12-14T08:44:01.787Z,22.77
2022-12-14T08:46:32.572Z,24.43
2022-12-14T08:49:00.807Z,24.87
2022-12-14T08:51:29.795Z,21.20
2022-12-14T08:53:58.454Z,21.60
2022-12-14T08:56:28.155Z,21.83
2022-12-14T08:58:56.296Z,23.30
2022-12-14T09:01:32.182Z,25.50
2022-12-14T09:04:05.490Z,26.00
2022-12-14T09:06:35.389Z,21.63
2022-12-14T09:09:03.307Z,22.40
2022-12-14T09:11:31.191Z,21.63
2022-12-14T09:13:59.481Z,23.10
2022-12-14T09:16:27.622Z,24.47
2022-12-14T09:18:56.002Z,20.60
2022-12-14T09:21:25.363Z,21.80
2022-12-14T09:23:59.051Z,23.77
2022-12-14T09:26:27.710Z,23.07
2022-12-14T09:28:57.991Z,19.73
2022-12-14T09:31:27.705Z,20.77
2022-12-14T09:33:56.792Z,19.40
2022-12-14T09:36:31.026Z,21.07
2022-12-14T09:38:59.487Z,24.93
2022-12-14T09:41:47.331Z,24.87
2022-12-14T09:44:26.929Z,23.63
2022-12-14T09:47:04.006Z,22.27
2022-12-14T09:49:34.344Z,22.07
2022-12-14T09:52:06.898Z,21.77
2022-12-14T09:54:38.374Z,20.00
2022-12-14T09:57:11.777Z,22.37
2022-12-14T09:59:40.117Z,19.30
2022-12-14T10:02:38.822Z,21.00
2022-12-14T10:05:32.741Z,21.47
2022-12-14T10:08:11.513Z,18.43
2022-12-14T10:10:50.074Z,22.83
2022-12-14T10:13:31.985Z,23.40
2022-12-14T10:16:10.600Z,20.40
2022-12-14T10:19:03.830Z,20.33
2022-12-14T10:21:46.348Z,25.10
2022-12-14T10:24:21.121Z,20.80
2022-12-14T10:26:53.153Z,21.47
2022-12-14T10:29:29.224Z,22.30
2022-12-14T10:32:05.400Z,23.17
2022-12-14T10:34:35.898Z,18.07
2022-12-14T10:37:12.950Z,21.13
2022-12-14T10:39:51.408Z,21.60
2022-12-14T10:42:27.644Z,20.40
2022-12-14T10:45:39.199Z,21.20
2022-12-14T10:48:14.501Z,20.07
2022-12-14T10:50:54.768Z,20.53
2022-12-14T10:53:29.236Z,22.87
2022-12-14T10:56:03.128Z,21.47
2022-12-14T10:58:31.729Z,23.37
2022-12-14T11:00:59.843Z,21.27
2022-12-14T11:03:29.169Z,19.43
2022-12-14T11:06:01.268Z,23.00
2022-12-14T11:08:40.839Z,19.73
2022-12-14T11:11:18.924Z,19.80
2022-12-14T11:13:53.307Z,19.20
2022-12-14T11:16:36.601Z,21.70
2022-12-14T11:19:06.711Z,22.43
2022-12-14T11:21:36.933Z,22.53
2022-12-14T11:24:06.390Z,19.53
2022-12-14T11:26:39.058Z,22.03
2022-12-14T11:29:17.608Z,21.80
2022-12-14T11:31:47.259Z,28.67
2022-12-14T11:34:26.688Z,38.50
2022-12-14T11:36:54.802Z,37.60
2022-12-14T11:39:24.712Z,26.77
2022-12-14T11:42:02.702Z,25.23
2022-12-14T11:44:38.747Z,22.13
2022-12-14T11:47:08.734Z,23.27
2022-12-14T11:49:44.956Z,23.43
2022-12-14T11:52:18.397Z,24.67
2022-12-14T11:54:49.550Z,25.27
2022-12-14T11:57:26.816Z,23.77
2022-12-14T11:59:59.619Z,22.17
2022-12-14T12:02:31.562Z,22.10
2022-12-14T12:05:04.304Z,27.47
2022-12-14T12:07:35.295Z,22.77
2022-12-14T12:10:20.569Z,24.20
2022-12-14T12:12:56.314Z,22.63
2022-12-14T12:15:27.007Z,24.03
2022-12-14T12:17:59.685Z,24.47
2022-12-14T12:20:34.430Z,25.33
2022-12-14T12:23:09.215Z,23.87
2022-12-14T12:25:39.717Z,24.07
2022-12-14T12:28:16.784Z,22.53
2022-12-14T12:30:50.526Z,28.73
2022-12-14T12:33:31.562Z,27.40
2022-12-14T12:36:04.435Z,26.53
2022-12-14T12:38:43.007Z,27.47
2022-12-14T12:41:29.756Z,27.90
2022-12-14T12:44:09.461Z,25.67
2022-12-14T12:47:14.945Z,24.70
2022-12-14T12:49:35.149Z,27.23
2022-12-14T12:52:14.320Z,26.17
2022-12-14T12:54:53.692Z,26.30
2022-12-14T12:57:24.074Z,24.77
2022-12-14T12:59:56.608Z,25.60
2022-12-14T13:02:32.417Z,27.73
2022-12-14T13:05:29.082Z,30.13
2022-12-14T13:07:57.491Z,28.80
2022-12-14T13:10:27.500Z,25.43
2022-12-14T13:12:58.229Z,48.73
2022-12-14T13:15:32.348Z,29.30
2022-12-14T13:18:04.931Z,26.00
2022-12-14T13:20:35.476Z,24.77
2022-12-14T13:26:23.464Z,26.30
2022-12-14T13:29:08.365Z,35.77
2022-12-14T13:31:45.016Z,48.53
2022-12-14T13:34:23.980Z,31.30
2022-12-14T13:37:31.403Z,60.83
2022-12-14T13:40:29.323Z,59.17
2022-12-14T13:43:09.819Z,30.23
2022-12-14T13:45:41.576Z,36.90
2022-12-14T13:48:23.046Z,26.30
2022-12-14T13:51:01.379Z,25.87
2022-12-14T13:53:36.269Z,25.00
2022-12-14T13:56:05.448Z,29.00
2022-12-14T13:58:38.814Z,28.80
2022-12-14T14:01:15.007Z,33.83
2022-12-14T14:03:53.422Z,27.40
2022-12-14T14:06:34.220Z,31.67
2022-12-14T14:09:40.666Z,30.80
2022-12-14T14:12:33.914Z,26.77
2022-12-14T14:15:18.849Z,27.93
2022-12-14T14:17:52.488Z,27.83
2022-12-14T14:20:37.530Z,26.23
2022-12-14T14:23:32.005Z,30.20
2022-12-14T14:26:26.198Z,27.23
2022-12-14T14:29:16.395Z,28.33
2022-12-14T14:31:47.513Z,25.87
2022-12-14T14:34:21.951Z,30.03
2022-12-14T14:36:52.235Z,27.77
2022-12-14T14:42:24.142Z,27.80
2022-12-14T14:44:54.690Z,30.47
2022-12-14T14:47:27.934Z,31.73
2022-12-14T14:50:00.943Z,29.73
2022-12-14T14:52:59.876Z,28.73
2022-12-14T14:56:05.506Z,30.90
2022-12-14T14:58:36.119Z,30.37
2022-12-14T15:01:14.067Z,34.10
2022-12-14T15:03:50.132Z,34.60
2022-12-14T15:06:22.344Z,33.43
2022-12-14T15:08:58.371Z,34.27
2022-12-14T15:11:27.907Z,29.90
2022-12-14T15:14:00.633Z,143.93
2022-12-14T15:16:34.030Z,87.87
2022-12-14T15:19:30.346Z,36.57
2022-12-14T15:22:01.689Z,32.23
2022-12-14T15:24:37.346Z,29.57
2022-12-14T15:27:19.916Z,34.50
2022-12-14T15:29:49.238Z,36.97
2022-12-14T15:32:19.581Z,38.83
2022-12-14T15:34:54.524Z,37.10
2022-12-14T15:37:29.283Z,32.27
2022-12-14T15:40:07.600Z,37.33
2022-12-14T15:42:35.542Z,38.93
2022-12-14T15:45:13.786Z,37.03
2022-12-14T15:47:41.726Z,33.33
2022-12-14T15:50:23.200Z,33.30
2022-12-14T15:52:52.723Z,36.27
2022-12-14T15:55:33.430Z,37.40
2022-12-14T15:58:08.956Z,32.10
2022-12-14T16:00:41.914Z,36.07
2022-12-14T16:03:19.568Z,35.23
2022-12-14T16:05:47.827Z,37.47
2022-12-14T16:08:16.372Z,35.47
2022-12-14T16:10:50.111Z,36.57
2022-12-14T16:13:24.960Z,34.70
2022-12-14T16:15:53.949Z,36.63
2022-12-14T16:18:22.119Z,36.60
2022-12-14T16:20:58.958Z,32.63
2022-12-14T16:23:31.595Z,32.63
2022-12-14T16:26:04.720Z,34.97
2022-12-14T16:28:34.860Z,50.27
2022-12-14T16:31:06.667Z,47.03
2022-12-14T16:33:36.114Z,44.10
2022-12-14T16:36:08.456Z,34.53
2022-12-14T16:38:42.956Z,34.43
2022-12-14T16:41:12.491Z,38.50
2022-12-14T16:43:42.548Z,35.63
2022-12-14T16:46:18.680Z,36.57
2022-12-14T16:49:09.501Z,34.67
2022-12-14T16:54:30.824Z,40.97
2022-12-14T16:57:02.864Z,39.33
2022-12-14T16:59:43.135Z,41.57
2022-12-14T17:02:28.249Z,34.77
2022-12-14T17:04:57.331Z,37.80
2022-12-14T17:07:28.563Z,39.50
2022-12-14T17:09:57.006Z,37.63
2022-12-14T17:12:27.834Z,36.33
2022-12-14T17:14:55.740Z,32.03
2022-12-14T17:17:30.115Z,37.03
2022-12-14T17:19:58.111Z,34.47
2022-12-14T17:22:28.918Z,37.13
2022-12-14T17:24:57.737Z,36.53
2022-12-14T17:27:27.757Z,36.13
2022-12-14T17:29:57.353Z,43.10
2022-12-14T17:32:29.688Z,37.67
2022-12-14T17:34:57.731Z,38.87
2022-12-14T17:37:30.977Z,38.07
2022-12-14T17:40:02.149Z,36.97
2022-12-14T17:42:31.870Z,39.33
2022-12-14T17:45:01.383Z,37.37
2022-12-14T17:47:29.289Z,37.93
2022-12-14T17:49:57.270Z,40.97
2022-12-14T17:52:28.507Z,36.90
2022-12-14T17:54:56.423Z,39.50
2022-12-14T17:57:25.930Z,37.00
2022-12-14T18:00:15.169Z,37.83
2022-12-14T18:02:45.707Z,36.70
2022-12-14T18:05:19.197Z,39.40
2022-12-14T18:07:49.864Z,39.70
2022-12-14T18:10:19.599Z,36.83
2022-12-14T18:12:47.717Z,36.50
2022-12-14T18:15:20.687Z,37.97
2022-12-14T18:17:49.489Z,37.50
2022-12-14T18:20:17.747Z,37.60
2022-12-14T18:22:49.569Z,41.00
2022-12-14T18:25:30.610Z,40.33
2022-12-14T18:27:59.070Z,37.23
2022-12-14T18:30:35.080Z,38.97
2022-12-14T18:33:07.791Z,52.43
2022-12-14T18:35:36.193Z,50.00
2022-12-14T18:38:04.131Z,44.23
2022-12-14T18:40:32.075Z,41.67
2022-12-14T18:43:00.007Z,47.27
2022-12-14T18:45:31.679Z,44.43
2022-12-14T18:48:00.804Z,42.83
2022-12-14T18:50:29.898Z,46.30
2022-12-14T18:52:58.416Z,45.60
2022-12-14T18:55:28.254Z,45.13
2022-12-14T18:57:58.597Z,38.17
2022-12-14T19:00:30.778Z,45.83
2022-12-14T19:02:59.629Z,45.07
2022-12-14T19:05:27.742Z,43.73
2022-12-14T19:07:57.009Z,40.40
2022-12-14T19:10:26.889Z,43.77
2022-12-14T19:12:55.584Z,47.40
2022-12-14T19:15:26.189Z,45.40
2022-12-14T19:17:56.072Z,46.23
2022-12-14T19:20:25.093Z,43.43
2022-12-14T19:22:53.267Z,42.10
2022-12-14T19:25:23.488Z,39.67
2022-12-14T19:30:40.798Z,38.17
2022-12-14T19:33:11.104Z,44.93
2022-12-14T19:35:41.280Z,39.27
2022-12-14T19:38:13.908Z,39.73
2022-12-14T19:40:42.130Z,40.33
2022-12-14T19:43:10.337Z,38.63
2022-12-14T19:45:40.573Z,40.47
2022-12-14T19:48:13.170Z,40.77
2022-12-14T19:50:41.529Z,39.60
2022-12-14T19:53:09.438Z,41.13
2022-12-14T19:55:37.430Z,39.43
2022-12-14T19:58:05.335Z,41.10
2022-12-14T20:00:33.236Z,39.60
2022-12-14T20:03:01.513Z,42.37
2022-12-14T20:05:30.975Z,44.40
2022-12-14T20:07:58.896Z,43.33
2022-12-14T20:10:26.842Z,45.07
2022-12-14T20:12:54.752Z,48.00
2022-12-14T20:15:22.643Z,44.43
2022-12-14T20:17:50.576Z,43.47
2022-12-14T20:20:19.233Z,44.20
2022-12-14T20:22:49.244Z,44.67
2022-12-14T20:25:17.371Z,44.80
2022-12-14T20:27:45.278Z,47.27
2022-12-14T20:30:13.838Z,44.37
2022-12-14T20:32:41.760Z,41.23
2022-12-14T20:35:12.150Z,42.77
2022-12-14T20:37:40.062Z,39.57
2022-12-14T20:40:11.220Z,35.73
2022-12-14T20:42:39.243Z,44.57
2022-12-14T20:45:08.643Z,42.90
2022-12-14T20:47:36.710Z,43.70
2022-12-14T20:50:04.911Z,42.23
2022-12-14T20:52:32.816Z,44.57
2022-12-14T20:55:00.695Z,42.33
2022-12-14T20:57:33.203Z,46.03
2022-12-14T21:00:01.453Z,40.27
2022-12-14T21:02:29.595Z,40.23
2022-12-14T21:04:57.661Z,40.97
2022-12-14T21:07:26.477Z,45.13
2022-12-14T21:09:54.638Z,45.87
2022-12-14T21:12:21.571Z,41.27
2022-12-14T21:14:53.214Z,38.33
2022-12-14T21:17:23.353Z,40.13
2022-12-14T21:19:52.762Z,38.13
2022-12-14T21:22:27.020Z,38.57
2022-12-14T21:25:04.920Z,39.30
2022-12-14T21:27:34.342Z,41.77
2022-12-14T21:30:08.860Z,41.70
2022-12-14T21:32:37.873Z,40.20
2022-12-14T21:35:06.583Z,42.17
2022-12-14T21:37:34.490Z,39.30
2022-12-14T21:40:03.919Z,35.87
2022-12-14T21:42:30.850Z,38.60
2022-12-14T21:44:58.763Z,40.17
2022-12-14T21:47:30.625Z,42.70
2022-12-14T21:49:58.694Z,38.97
2022-12-14T21:52:29.400Z,39.63
2022-12-14T21:54:58.952Z,39.10
2022-12-14T21:57:49.879Z,40.67
2022-12-14T22:00:19.351Z,40.53
2022-12-14T22:02:51.501Z,40.87
2022-12-14T22:05:19.668Z,41.33
2022-12-14T22:07:47.818Z,43.67
2022-12-14T22:10:19.877Z,38.87
2022-12-14T22:12:50.836Z,42.87
2022-12-14T22:15:18.733Z,41.67
2022-12-14T22:17:48.076Z,42.33
2022-12-14T22:20:16.060Z,45.73
2022-12-14T22:22:45.011Z,41.20
2022-12-14T22:25:12.896Z,43.67
2022-12-14T22:27:40.789Z,43.63
2022-12-14T22:30:09.655Z,40.83
2022-12-14T22:32:37.556Z,42.73
2022-12-14T22:35:09.637Z,37.10
2022-12-14T22:37:37.579Z,36.20
2022-12-14T22:40:06.324Z,38.10
2022-12-14T22:42:35.763Z,38.57
2022-12-14T22:45:03.611Z,35.40
2022-12-14T22:47:31.441Z,36.07
2022-12-14T22:49:59.309Z,36.40
2022-12-14T22:52:28.522Z,33.10
2022-12-14T22:54:56.409Z,35.67
2022-12-14T22:57:24.637Z,36.00
2022-12-14T22:59:57.561Z,34.17
2022-12-14T23:02:26.037Z,36.17
2022-12-14T23:04:54.404Z,32.57
2022-12-14T23:07:22.291Z,33.00
2022-12-14T23:10:09.247Z,31.07
2022-12-14T23:12:54.512Z,32.20
2022-12-14T23:15:39.941Z,31.43
2022-12-14T23:18:26.424Z,31.23
2022-12-14T23:21:12.463Z,32.60
2022-12-14T23:23:58.459Z,31.87
2022-12-14T23:26:45.407Z,34.97
2022-12-14T23:29:30.595Z,34.67
2022-12-14T23:32:16.179Z,33.10
2022-12-14T23:35:01.686Z,31.43
2022-12-14T23:37:47.089Z,34.13
2022-12-14T23:40:32.549Z,32.37
2022-12-14T23:43:26.864Z,35.83
2022-12-14T23:46:12.423Z,33.97
2022-12-14T23:48:57.851Z,31.23
2022-12-14T23:51:43.443Z,31.40
2022-12-14T23:54:28.761Z,33.33
2022-12-14T23:57:14.179Z,33.30
